Airport Information

KCLM - William R Fairchild International Airport

KCLM 160753Z AUTO VRB04KT 10SM OVC013 06/03 A2977 RMK AO2 SLP083 T00610033 400720011


  • General Information

  • Coordinates: N 48°7'12"/ W 123°30'0"
  • Location: N/A
  • Surveyed Elevation: 291 MSL

Operations

Flow Name Active Runways Conditions

Green background denotes normal operations.


Common Frequencies

Callsign Frequency Position Name

More at the Document Center


Charts